sensor_id;sensor_type;location;lat;lon;timestamp;temperature;humidity
9527;DHT22;4802;51.494;6.770;2023-07-16T00:01:32;20.40;1.00
9527;DHT22;4802;51.494;6.770;2023-07-16T00:04:06;20.70;1.00
9527;DHT22;4802;51.494;6.770;2023-07-16T00:06:42;20.40;1.00
9527;DHT22;4802;51.494;6.770;2023-07-16T00:09:12;20.30;1.00
9527;DHT22;4802;51.494;6.770;2023-07-16T00:11:41;20.30;1.00
9527;DHT22;4802;51.494;6.770;2023-07-16T00:14:10;20.30;1.00
9527;DHT22;4802;51.494;6.770;2023-07-16T00:16:41;20.30;1.00
9527;DHT22;4802;51.494;6.770;2023-07-16T00:19:11;20.10;1.00
9527;DHT22;4802;51.494;6.770;2023-07-16T00:21:40;20.10;1.00
9527;DHT22;4802;51.494;6.770;2023-07-16T00:24:10;20.10;1.00
9527;DHT22;4802;51.494;6.770;2023-07-16T00:26:45;20.10;1.00
9527;DHT22;4802;51.494;6.770;2023-07-16T00:29:14;20.00;1.00
9527;DHT22;4802;51.494;6.770;2023-07-16T00:31:53;19.70;1.00
9527;DHT22;4802;51.494;6.770;2023-07-16T00:34:24;19.80;49.10
9527;DHT22;4802;51.494;6.770;2023-07-16T00:36:58;19.80;80.70
9527;DHT22;4802;51.494;6.770;2023-07-16T00:39:41;19.70;98.10
9527;DHT22;4802;51.494;6.770;2023-07-16T00:42:11;19.60;99.90
9527;DHT22;4802;51.494;6.770;2023-07-16T00:44:41;19.60;99.90
9527;DHT22;4802;51.494;6.770;2023-07-16T00:47:31;20.30;99.90
9527;DHT22;4802;51.494;6.770;2023-07-16T00:50:01;19.60;99.90
9527;DHT22;4802;51.494;6.770;2023-07-16T00:52:48;19.60;99.90
9527;DHT22;4802;51.494;6.770;2023-07-16T00:56:10;19.40;99.90
9527;DHT22;4802;51.494;6.770;2023-07-16T00:58:49;19.50;99.90
9527;DHT22;4802;51.494;6.770;2023-07-16T01:01:18;19.40;99.90
9527;DHT22;4802;51.494;6.770;2023-07-16T01:03:48;19.50;99.90
9527;DHT22;4802;51.494;6.770;2023-07-16T01:06:30;19.40;99.90
9527;DHT22;4802;51.494;6.770;2023-07-16T01:09:04;19.40;99.90
9527;DHT22;4802;51.494;6.770;2023-07-16T01:11:52;19.30;99.90
9527;DHT22;4802;51.494;6.770;2023-07-16T01:14:30;19.30;99.90
9527;DHT22;4802;51.494;6.770;2023-07-16T01:17:03;19.20;99.90
9527;DHT22;4802;51.494;6.770;2023-07-16T01:19:37;19.10;99.90
9527;DHT22;4802;51.494;6.770;2023-07-16T01:22:38;19.00;99.90
9527;DHT22;4802;51.494;6.770;2023-07-16T01:25:29;19.00;99.90
9527;DHT22;4802;51.494;6.770;2023-07-16T01:28:27;19.00;99.90
9527;DHT22;4802;51.494;6.770;2023-07-16T01:31:06;19.00;99.90
9527;DHT22;4802;51.494;6.770;2023-07-16T01:33:51;19.00;99.90
9527;DHT22;4802;51.494;6.770;2023-07-16T01:36:24;18.80;99.90
9527;DHT22;4802;51.494;6.770;2023-07-16T01:39:00;19.00;99.90
9527;DHT22;4802;51.494;6.770;2023-07-16T01:41:37;18.90;99.90
9527;DHT22;4802;51.494;6.770;2023-07-16T01:44:12;18.90;99.90
9527;DHT22;4802;51.494;6.770;2023-07-16T01:47:19;18.80;99.90
9527;DHT22;4802;51.494;6.770;2023-07-16T01:49:54;18.80;99.90
9527;DHT22;4802;51.494;6.770;2023-07-16T01:52:40;18.40;99.90
9527;DHT22;4802;51.494;6.770;2023-07-16T01:55:16;18.50;99.90
9527;DHT22;4802;51.494;6.770;2023-07-16T01:57:50;18.70;99.90
9527;DHT22;4802;51.494;6.770;2023-07-16T02:00:19;18.70;99.90
9527;DHT22;4802;51.494;6.770;2023-07-16T02:02:54;18.70;99.90
9527;DHT22;4802;51.494;6.770;2023-07-16T02:05:26;18.50;99.90
9527;DHT22;4802;51.494;6.770;2023-07-16T02:07:59;18.90;99.90
9527;DHT22;4802;51.494;6.770;2023-07-16T02:10:30;18.70;99.90
9527;DHT22;4802;51.494;6.770;2023-07-16T02:13:09;18.70;99.90
9527;DHT22;4802;51.494;6.770;2023-07-16T02:15:42;18.70;99.90
9527;DHT22;4802;51.494;6.770;2023-07-16T02:18:26;18.70;99.90
9527;DHT22;4802;51.494;6.770;2023-07-16T02:21:11;18.70;99.90
9527;DHT22;4802;51.494;6.770;2023-07-16T02:23:43;18.70;99.90
9527;DHT22;4802;51.494;6.770;2023-07-16T02:26:12;18.90;99.90
9527;DHT22;4802;51.494;6.770;2023-07-16T02:28:42;18.70;99.90
9527;DHT22;4802;51.494;6.770;2023-07-16T02:31:13;18.70;99.90
9527;DHT22;4802;51.494;6.770;2023-07-16T02:33:47;18.70;99.90
9527;DHT22;4802;51.494;6.770;2023-07-16T02:36:17;18.80;99.90
9527;DHT22;4802;51.494;6.770;2023-07-16T02:38:52;18.80;99.90
9527;DHT22;4802;51.494;6.770;2023-07-16T02:41:21;18.80;99.90
9527;DHT22;4802;51.494;6.770;2023-07-16T02:44:06;18.10;99.90
9527;DHT22;4802;51.494;6.770;2023-07-16T02:46:42;18.90;99.90
9527;DHT22;4802;51.494;6.770;2023-07-16T02:49:21;18.80;99.90
9527;DHT22;4802;51.494;6.770;2023-07-16T02:51:52;18.80;99.90
9527;DHT22;4802;51.494;6.770;2023-07-16T02:54:22;18.80;99.90
9527;DHT22;4802;51.494;6.770;2023-07-16T02:56:59;18.50;97.00
9527;DHT22;4802;51.494;6.770;2023-07-16T02:59:30;18.80;99.90
9527;DHT22;4802;51.494;6.770;2023-07-16T03:02:00;18.80;87.90
9527;DHT22;4802;51.494;6.770;2023-07-16T03:04:46;18.80;53.40
9527;DHT22;4802;51.494;6.770;2023-07-16T03:07:42;18.80;63.30
9527;DHT22;4802;51.494;6.770;2023-07-16T03:10:14;18.80;66.50
9527;DHT22;4802;51.494;6.770;2023-07-16T03:12:47;18.80;44.70
9527;DHT22;4802;51.494;6.770;2023-07-16T03:15:19;18.50;47.40
9527;DHT22;4802;51.494;6.770;2023-07-16T03:17:59;18.70;70.00
9527;DHT22;4802;51.494;6.770;2023-07-16T03:20:33;18.60;75.80
9527;DHT22;4802;51.494;6.770;2023-07-16T03:23:15;18.70;75.70
9527;DHT22;4802;51.494;6.770;2023-07-16T03:25:46;18.60;48.30
9527;DHT22;4802;51.494;6.770;2023-07-16T03:28:20;18.60;70.40
9527;DHT22;4802;51.494;6.770;2023-07-16T03:30:50;18.50;51.70
9527;DHT22;4802;51.494;6.770;2023-07-16T03:33:22;18.50;45.50
9527;DHT22;4802;51.494;6.770;2023-07-16T03:35:52;18.50;17.70
9527;DHT22;4802;51.494;6.770;2023-07-16T03:38:23;18.50;1.00
9527;DHT22;4802;51.494;6.770;2023-07-16T03:40:53;18.40;1.00
9527;DHT22;4802;51.494;6.770;2023-07-16T03:43:22;18.40;1.00
9527;DHT22;4802;51.494;6.770;2023-07-16T03:45:53;18.30;1.00
9527;DHT22;4802;51.494;6.770;2023-07-16T03:48:23;18.30;1.00
9527;DHT22;4802;51.494;6.770;2023-07-16T03:50:53;18.40;1.00
9527;DHT22;4802;51.494;6.770;2023-07-16T03:53:35;18.40;1.00
9527;DHT22;4802;51.494;6.770;2023-07-16T03:56:04;18.40;1.00
9527;DHT22;4802;51.494;6.770;2023-07-16T03:58:33;18.40;1.00
9527;DHT22;4802;51.494;6.770;2023-07-16T04:01:07;18.40;1.00
9527;DHT22;4802;51.494;6.770;2023-07-16T04:03:36;18.20;1.00
9527;DHT22;4802;51.494;6.770;2023-07-16T04:06:09;18.50;1.00
9527;DHT22;4802;51.494;6.770;2023-07-16T04:08:41;18.50;1.00
9527;DHT22;4802;51.494;6.770;2023-07-16T04:11:10;18.50;1.00
9527;DHT22;4802;51.494;6.770;2023-07-16T04:13:41;18.10;1.00
9527;DHT22;4802;51.494;6.770;2023-07-16T04:16:14;18.50;1.00
9527;DHT22;4802;51.494;6.770;2023-07-16T04:18:44;18.50;1.00
9527;DHT22;4802;51.494;6.770;2023-07-16T04:21:33;18.50;1.00
9527;DHT22;4802;51.494;6.770;2023-07-16T04:24:07;18.60;1.00
9527;DHT22;4802;51.494;6.770;2023-07-16T04:26:36;18.60;1.00
9527;DHT22;4802;51.494;6.770;2023-07-16T04:29:06;19.10;1.00
9527;DHT22;4802;51.494;6.770;2023-07-16T04:31:36;19.80;1.00
9527;DHT22;4802;51.494;6.770;2023-07-16T04:34:06;20.40;1.00
9527;DHT22;4802;51.494;6.770;2023-07-16T04:36:45;20.90;1.00
9527;DHT22;4802;51.494;6.770;2023-07-16T04:39:22;21.40;1.00
9527;DHT22;4802;51.494;6.770;2023-07-16T04:41:58;21.90;1.00
9527;DHT22;4802;51.494;6.770;2023-07-16T04:44:28;22.30;1.00
9527;DHT22;4802;51.494;6.770;2023-07-16T04:47:07;22.40;1.00
9527;DHT22;4802;51.494;6.770;2023-07-16T04:49:49;22.60;1.00
9527;DHT22;4802;51.494;6.770;2023-07-16T04:52:27;22.90;1.00
9527;DHT22;4802;51.494;6.770;2023-07-16T04:54:56;23.30;1.00
9527;DHT22;4802;51.494;6.770;2023-07-16T04:57:27;23.70;1.00
9527;DHT22;4802;51.494;6.770;2023-07-16T04:59:56;24.40;1.00
9527;DHT22;4802;51.494;6.770;2023-07-16T05:02:28;25.00;1.00
9527;DHT22;4802;51.494;6.770;2023-07-16T05:05:03;25.00;1.00
9527;DHT22;4802;51.494;6.770;2023-07-16T05:07:35;24.60;99.90
9527;DHT22;4802;51.494;6.770;2023-07-16T05:10:06;25.00;1.00
9527;DHT22;4802;51.494;6.770;2023-07-16T05:12:37;25.60;99.90
9527;DHT22;4802;51.494;6.770;2023-07-16T05:15:08;25.90;99.90
9527;DHT22;4802;51.494;6.770;2023-07-16T05:17:38;25.60;99.90
9527;DHT22;4802;51.494;6.770;2023-07-16T05:20:09;26.00;99.90
9527;DHT22;4802;51.494;6.770;2023-07-16T05:22:49;26.40;99.90
9527;DHT22;4802;51.494;6.770;2023-07-16T05:25:19;26.50;99.90
9527;DHT22;4802;51.494;6.770;2023-07-16T05:27:58;26.60;99.90
9527;DHT22;4802;51.494;6.770;2023-07-16T05:30:29;26.70;99.90
9527;DHT22;4802;51.494;6.770;2023-07-16T05:32:58;26.70;99.90
9527;DHT22;4802;51.494;6.770;2023-07-16T05:35:31;27.10;99.90
9527;DHT22;4802;51.494;6.770;2023-07-16T05:38:04;27.30;99.90
9527;DHT22;4802;51.494;6.770;2023-07-16T05:40:34;27.60;99.90
9527;DHT22;4802;51.494;6.770;2023-07-16T05:43:03;27.80;99.90
9527;DHT22;4802;51.494;6.770;2023-07-16T05:45:34;27.60;99.90
9527;DHT22;4802;51.494;6.770;2023-07-16T05:48:03;27.50;99.90
9527;DHT22;4802;51.494;6.770;2023-07-16T05:50:35;27.80;99.90
9527;DHT22;4802;51.494;6.770;2023-07-16T05:53:07;28.00;99.90
9527;DHT22;4802;51.494;6.770;2023-07-16T05:55:36;27.90;99.90
9527;DHT22;4802;51.494;6.770;2023-07-16T05:58:05;28.00;99.90
9527;DHT22;4802;51.494;6.770;2023-07-16T06:00:36;27.80;99.90
9527;DHT22;4802;51.494;6.770;2023-07-16T06:03:11;27.30;99.90
9527;DHT22;4802;51.494;6.770;2023-07-16T06:05:42;27.80;99.90
9527;DHT22;4802;51.494;6.770;2023-07-16T06:08:14;27.80;99.90
9527;DHT22;4802;51.494;6.770;2023-07-16T06:10:45;28.10;99.90
9527;DHT22;4802;51.494;6.770;2023-07-16T06:13:16;28.10;99.90
9527;DHT22;4802;51.494;6.770;2023-07-16T06:15:48;28.40;99.90
9527;DHT22;4802;51.494;6.770;2023-07-16T06:18:24;29.00;99.90
9527;DHT22;4802;51.494;6.770;2023-07-16T06:20:53;29.50;99.90
9527;DHT22;4802;51.494;6.770;2023-07-16T06:23:24;30.00;99.90
9527;DHT22;4802;51.494;6.770;2023-07-16T06:25:57;30.20;99.90
9527;DHT22;4802;51.494;6.770;2023-07-16T06:28:26;30.60;99.90
9527;DHT22;4802;51.494;6.770;2023-07-16T06:31:01;30.60;99.90
9527;DHT22;4802;51.494;6.770;2023-07-16T06:33:37;30.50;99.90
9527;DHT22;4802;51.494;6.770;2023-07-16T06:36:08;29.80;99.90
9527;DHT22;4802;51.494;6.770;2023-07-16T06:38:41;29.70;99.90
9527;DHT22;4802;51.494;6.770;2023-07-16T06:41:12;30.00;99.90
9527;DHT22;4802;51.494;6.770;2023-07-16T06:43:54;30.80;99.90
9527;DHT22;4802;51.494;6.770;2023-07-16T06:46:29;30.50;99.90
9527;DHT22;4802;51.494;6.770;2023-07-16T06:49:01;30.40;99.90
9527;DHT22;4802;51.494;6.770;2023-07-16T06:51:32;30.70;99.90
9527;DHT22;4802;51.494;6.770;2023-07-16T06:54:04;30.20;99.90
9527;DHT22;4802;51.494;6.770;2023-07-16T06:56:33;29.80;99.90
9527;DHT22;4802;51.494;6.770;2023-07-16T06:59:03;30.10;99.90
9527;DHT22;4802;51.494;6.770;2023-07-16T07:01:33;29.80;99.90
9527;DHT22;4802;51.494;6.770;2023-07-16T07:04:02;29.90;99.90
9527;DHT22;4802;51.494;6.770;2023-07-16T07:06:33;30.30;99.90
9527;DHT22;4802;51.494;6.770;2023-07-16T07:09:07;29.50;99.90
9527;DHT22;4802;51.494;6.770;2023-07-16T07:11:45;29.80;99.90
9527;DHT22;4802;51.494;6.770;2023-07-16T07:14:16;30.20;99.90
9527;DHT22;4802;51.494;6.770;2023-07-16T07:16:49;29.80;99.90
9527;DHT22;4802;51.494;6.770;2023-07-16T07:19:18;29.70;99.90
9527;DHT22;4802;51.494;6.770;2023-07-16T07:21:50;30.30;99.90
9527;DHT22;4802;51.494;6.770;2023-07-16T07:24:24;30.20;99.90
9527;DHT22;4802;51.494;6.770;2023-07-16T07:26:53;29.60;99.90
9527;DHT22;4802;51.494;6.770;2023-07-16T07:29:22;29.00;99.90
9527;DHT22;4802;51.494;6.770;2023-07-16T07:31:53;28.90;99.90
9527;DHT22;4802;51.494;6.770;2023-07-16T07:34:25;29.70;99.90
9527;DHT22;4802;51.494;6.770;2023-07-16T07:36:57;29.70;99.90
9527;DHT22;4802;51.494;6.770;2023-07-16T07:39:32;29.40;99.90
9527;DHT22;4802;51.494;6.770;2023-07-16T07:42:01;29.80;99.90
9527;DHT22;4802;51.494;6.770;2023-07-16T07:44:34;29.90;99.90
9527;DHT22;4802;51.494;6.770;2023-07-16T07:47:10;30.00;99.90
9527;DHT22;4802;51.494;6.770;2023-07-16T07:49:42;31.30;99.90
9527;DHT22;4802;51.494;6.770;2023-07-16T07:52:13;31.20;99.90
9527;DHT22;4802;51.494;6.770;2023-07-16T07:54:46;31.40;99.90
9527;DHT22;4802;51.494;6.770;2023-07-16T07:57:20;30.70;99.90
9527;DHT22;4802;51.494;6.770;2023-07-16T07:59:49;30.90;99.90
9527;DHT22;4802;51.494;6.770;2023-07-16T08:02:30;31.40;99.90
9527;DHT22;4802;51.494;6.770;2023-07-16T08:05:02;31.70;99.90
9527;DHT22;4802;51.494;6.770;2023-07-16T08:07:53;31.90;99.90
9527;DHT22;4802;51.494;6.770;2023-07-16T08:10:30;32.00;99.90
9527;DHT22;4802;51.494;6.770;2023-07-16T08:13:00;32.40;99.90
9527;DHT22;4802;51.494;6.770;2023-07-16T08:15:30;32.00;99.90
9527;DHT22;4802;51.494;6.770;2023-07-16T08:18:14;31.90;99.90
9527;DHT22;4802;51.494;6.770;2023-07-16T08:20:48;32.50;99.90
9527;DHT22;4802;51.494;6.770;2023-07-16T08:23:20;32.30;99.90
9527;DHT22;4802;51.494;6.770;2023-07-16T08:26:12;32.30;99.90
9527;DHT22;4802;51.494;6.770;2023-07-16T08:28:42;31.90;99.90
9527;DHT22;4802;51.494;6.770;2023-07-16T08:31:15;31.80;99.90
9527;DHT22;4802;51.494;6.770;2023-07-16T08:33:50;31.40;99.90
9527;DHT22;4802;51.494;6.770;2023-07-16T08:36:24;31.60;99.90
9527;DHT22;4802;51.494;6.770;2023-07-16T08:39:04;31.60;99.90
9527;DHT22;4802;51.494;6.770;2023-07-16T08:41:43;31.50;99.90
9527;DHT22;4802;51.494;6.770;2023-07-16T08:44:15;30.70;99.90
9527;DHT22;4802;51.494;6.770;2023-07-16T08:46:56;30.90;99.90
9527;DHT22;4802;51.494;6.770;2023-07-16T08:49:29;30.00;99.90
9527;DHT22;4802;51.494;6.770;2023-07-16T08:52:01;30.50;99.90
9527;DHT22;4802;51.494;6.770;2023-07-16T08:54:34;30.20;99.90
9527;DHT22;4802;51.494;6.770;2023-07-16T08:57:17;30.00;99.90
9527;DHT22;4802;51.494;6.770;2023-07-16T08:59:56;29.20;99.90
9527;DHT22;4802;51.494;6.770;2023-07-16T09:02:49;28.70;99.90
9527;DHT22;4802;51.494;6.770;2023-07-16T09:05:44;28.10;99.90
9527;DHT22;4802;51.494;6.770;2023-07-16T09:08:15;28.80;99.90
9527;DHT22;4802;51.494;6.770;2023-07-16T09:10:53;29.10;99.90
9527;DHT22;4802;51.494;6.770;2023-07-16T09:13:31;29.10;99.90
9527;DHT22;4802;51.494;6.770;2023-07-16T09:16:18;28.00;99.90
9527;DHT22;4802;51.494;6.770;2023-07-16T09:18:52;27.20;99.90
9527;DHT22;4802;51.494;6.770;2023-07-16T09:21:26;27.80;99.90
9527;DHT22;4802;51.494;6.770;2023-07-16T09:24:06;28.50;99.90
9527;DHT22;4802;51.494;6.770;2023-07-16T09:26:51;28.20;99.90
9527;DHT22;4802;51.494;6.770;2023-07-16T09:29:38;28.20;99.90
9527;DHT22;4802;51.494;6.770;2023-07-16T09:32:17;29.20;99.90
9527;DHT22;4802;51.494;6.770;2023-07-16T09:34:50;29.90;99.90
9527;DHT22;4802;51.494;6.770;2023-07-16T09:37:24;29.90;99.90
9527;DHT22;4802;51.494;6.770;2023-07-16T09:39:58;29.90;99.90
9527;DHT22;4802;51.494;6.770;2023-07-16T09:42:45;29.50;99.90
9527;DHT22;4802;51.494;6.770;2023-07-16T09:45:21;29.10;99.90
9527;DHT22;4802;51.494;6.770;2023-07-16T09:47:56;29.70;99.90
9527;DHT22;4802;51.494;6.770;2023-07-16T09:50:32;29.90;99.90
9527;DHT22;4802;51.494;6.770;2023-07-16T09:53:04;29.80;99.90
9527;DHT22;4802;51.494;6.770;2023-07-16T09:55:52;29.50;99.90
9527;DHT22;4802;51.494;6.770;2023-07-16T09:58:24;28.20;99.90
9527;DHT22;4802;51.494;6.770;2023-07-16T10:01:10;27.60;99.90
9527;DHT22;4802;51.494;6.770;2023-07-16T10:03:53;27.70;99.90
9527;DHT22;4802;51.494;6.770;2023-07-16T10:06:30;27.60;99.90
9527;DHT22;4802;51.494;6.770;2023-07-16T10:09:10;26.80;99.90
9527;DHT22;4802;51.494;6.770;2023-07-16T10:11:43;27.10;99.90
9527;DHT22;4802;51.494;6.770;2023-07-16T10:14:33;27.00;99.90
9527;DHT22;4802;51.494;6.770;2023-07-16T10:17:32;27.10;99.90
9527;DHT22;4802;51.494;6.770;2023-07-16T10:20:09;27.10;99.90
9527;DHT22;4802;51.494;6.770;2023-07-16T10:22:50;26.80;99.90
9527;DHT22;4802;51.494;6.770;2023-07-16T10:25:33;26.80;99.90
9527;DHT22;4802;51.494;6.770;2023-07-16T10:28:22;26.90;99.90
9527;DHT22;4802;51.494;6.770;2023-07-16T10:30:55;26.90;99.90
9527;DHT22;4802;51.494;6.770;2023-07-16T10:33:33;26.60;99.90
9527;DHT22;4802;51.494;6.770;2023-07-16T10:36:05;26.30;99.90
9527;DHT22;4802;51.494;6.770;2023-07-16T10:39:01;26.60;99.90
9527;DHT22;4802;51.494;6.770;2023-07-16T10:41:35;26.10;99.90
9527;DHT22;4802;51.494;6.770;2023-07-16T10:44:04;25.80;99.90
9527;DHT22;4802;51.494;6.770;2023-07-16T10:46:46;25.70;99.90
9527;DHT22;4802;51.494;6.770;2023-07-16T10:49:30;26.10;99.90
9527;DHT22;4802;51.494;6.770;2023-07-16T10:52:02;26.20;99.90
9527;DHT22;4802;51.494;6.770;2023-07-16T10:54:46;25.90;99.90
9527;DHT22;4802;51.494;6.770;2023-07-16T10:57:16;25.50;99.90
9527;DHT22;4802;51.494;6.770;2023-07-16T10:59:46;25.40;99.90
9527;DHT22;4802;51.494;6.770;2023-07-16T11:02:21;25.50;99.90
9527;DHT22;4802;51.494;6.770;2023-07-16T11:04:58;25.50;99.90
9527;DHT22;4802;51.494;6.770;2023-07-16T11:07:30;25.30;99.90
9527;DHT22;4802;51.494;6.770;2023-07-16T11:10:06;25.50;99.90
9527;DHT22;4802;51.494;6.770;2023-07-16T11:12:42;25.30;99.90
9527;DHT22;4802;51.494;6.770;2023-07-16T11:15:16;25.10;99.90
9527;DHT22;4802;51.494;6.770;2023-07-16T11:17:56;24.80;99.90
9527;DHT22;4802;51.494;6.770;2023-07-16T11:20:32;24.80;99.90
9527;DHT22;4802;51.494;6.770;2023-07-16T11:23:06;24.80;99.90
9527;DHT22;4802;51.494;6.770;2023-07-16T11:25:46;24.50;99.90
9527;DHT22;4802;51.494;6.770;2023-07-16T11:28:38;25.30;99.90
9527;DHT22;4802;51.494;6.770;2023-07-16T11:31:17;25.10;99.90
9527;DHT22;4802;51.494;6.770;2023-07-16T11:33:51;25.00;99.90
9527;DHT22;4802;51.494;6.770;2023-07-16T11:36:36;24.70;99.90
9527;DHT22;4802;51.494;6.770;2023-07-16T11:39:12;24.40;99.90
9527;DHT22;4802;51.494;6.770;2023-07-16T11:42:09;24.70;99.90
9527;DHT22;4802;51.494;6.770;2023-07-16T11:44:39;25.00;99.90
9527;DHT22;4802;51.494;6.770;2023-07-16T11:47:52;25.30;99.90
9527;DHT22;4802;51.494;6.770;2023-07-16T11:50:43;25.40;99.90
9527;DHT22;4802;51.494;6.770;2023-07-16T11:56:40;25.20;99.90
9527;DHT22;4802;51.494;6.770;2023-07-16T11:59:10;25.40;99.90
9527;DHT22;4802;51.494;6.770;2023-07-16T12:01:49;25.30;99.90
9527;DHT22;4802;51.494;6.770;2023-07-16T12:04:23;25.20;99.90
9527;DHT22;4802;51.494;6.770;2023-07-16T12:06:58;25.10;99.90
9527;DHT22;4802;51.494;6.770;2023-07-16T12:09:45;25.10;99.90
9527;DHT22;4802;51.494;6.770;2023-07-16T12:12:17;25.40;99.90
9527;DHT22;4802;51.494;6.770;2023-07-16T12:15:12;25.60;99.90
9527;DHT22;4802;51.494;6.770;2023-07-16T12:17:42;25.50;99.90
9527;DHT22;4802;51.494;6.770;2023-07-16T12:20:26;25.40;99.90
9527;DHT22;4802;51.494;6.770;2023-07-16T12:23:11;25.60;99.90
9527;DHT22;4802;51.494;6.770;2023-07-16T12:25:43;25.80;99.90
9527;DHT22;4802;51.494;6.770;2023-07-16T12:28:27;25.60;99.90
9527;DHT22;4802;51.494;6.770;2023-07-16T12:31:00;26.00;99.90
9527;DHT22;4802;51.494;6.770;2023-07-16T12:33:34;25.90;99.90
9527;DHT22;4802;51.494;6.770;2023-07-16T12:36:06;25.70;99.90
9527;DHT22;4802;51.494;6.770;2023-07-16T12:38:42;25.60;99.90
9527;DHT22;4802;51.494;6.770;2023-07-16T12:41:11;25.40;99.90
9527;DHT22;4802;51.494;6.770;2023-07-16T12:43:50;25.70;99.90
9527;DHT22;4802;51.494;6.770;2023-07-16T12:46:23;25.70;99.90
9527;DHT22;4802;51.494;6.770;2023-07-16T12:49:06;25.80;99.90
9527;DHT22;4802;51.494;6.770;2023-07-16T12:51:37;26.10;99.90
9527;DHT22;4802;51.494;6.770;2023-07-16T12:54:11;25.90;99.90
9527;DHT22;4802;51.494;6.770;2023-07-16T12:56:43;25.70;99.90
9527;DHT22;4802;51.494;6.770;2023-07-16T12:59:16;25.60;99.90
9527;DHT22;4802;51.494;6.770;2023-07-16T13:01:49;25.70;99.90
9527;DHT22;4802;51.494;6.770;2023-07-16T13:04:20;25.70;99.90
9527;DHT22;4802;51.494;6.770;2023-07-16T13:06:53;25.70;99.90
9527;DHT22;4802;51.494;6.770;2023-07-16T13:09:24;25.80;99.90
9527;DHT22;4802;51.494;6.770;2023-07-16T13:11:58;26.00;99.90
9527;DHT22;4802;51.494;6.770;2023-07-16T13:14:30;26.00;99.90
9527;DHT22;4802;51.494;6.770;2023-07-16T13:17:00;25.90;99.90
9527;DHT22;4802;51.494;6.770;2023-07-16T13:19:36;26.20;99.90
9527;DHT22;4802;51.494;6.770;2023-07-16T13:22:06;26.40;99.90
9527;DHT22;4802;51.494;6.770;2023-07-16T13:24:35;26.50;99.90
9527;DHT22;4802;51.494;6.770;2023-07-16T13:27:05;25.80;99.90
9527;DHT22;4802;51.494;6.770;2023-07-16T13:29:51;26.50;99.90
9527;DHT22;4802;51.494;6.770;2023-07-16T13:32:25;26.40;99.90
9527;DHT22;4802;51.494;6.770;2023-07-16T13:34:54;26.30;99.90
9527;DHT22;4802;51.494;6.770;2023-07-16T13:37:26;26.50;99.90
9527;DHT22;4802;51.494;6.770;2023-07-16T13:39:55;26.60;99.90
9527;DHT22;4802;51.494;6.770;2023-07-16T13:42:25;26.70;99.90
9527;DHT22;4802;51.494;6.770;2023-07-16T13:44:56;26.70;99.90
9527;DHT22;4802;51.494;6.770;2023-07-16T13:47:28;26.50;99.90
9527;DHT22;4802;51.494;6.770;2023-07-16T13:50:00;26.20;99.90
9527;DHT22;4802;51.494;6.770;2023-07-16T13:52:30;26.20;99.90
9527;DHT22;4802;51.494;6.770;2023-07-16T13:55:01;26.20;99.90
9527;DHT22;4802;51.494;6.770;2023-07-16T13:57:31;26.20;99.90
9527;DHT22;4802;51.494;6.770;2023-07-16T14:00:06;26.30;99.90
9527;DHT22;4802;51.494;6.770;2023-07-16T14:02:41;26.30;99.90
9527;DHT22;4802;51.494;6.770;2023-07-16T14:05:13;26.30;99.90
9527;DHT22;4802;51.494;6.770;2023-07-16T14:07:42;26.40;99.90
9527;DHT22;4802;51.494;6.770;2023-07-16T14:10:11;26.30;99.90
9527;DHT22;4802;51.494;6.770;2023-07-16T14:12:41;26.40;99.90
9527;DHT22;4802;51.494;6.770;2023-07-16T14:15:14;26.40;99.90
9527;DHT22;4802;51.494;6.770;2023-07-16T14:17:45;26.30;99.90
9527;DHT22;4802;51.494;6.770;2023-07-16T14:20:17;26.40;99.90
9527;DHT22;4802;51.494;6.770;2023-07-16T14:22:49;26.20;99.90
9527;DHT22;4802;51.494;6.770;2023-07-16T14:25:23;26.10;99.90
9527;DHT22;4802;51.494;6.770;2023-07-16T14:27:53;26.40;99.90
9527;DHT22;4802;51.494;6.770;2023-07-16T14:30:26;26.50;99.90
9527;DHT22;4802;51.494;6.770;2023-07-16T14:32:56;26.30;99.90
9527;DHT22;4802;51.494;6.770;2023-07-16T14:35:26;26.30;99.90
9527;DHT22;4802;51.494;6.770;2023-07-16T14:38:04;26.20;99.90
9527;DHT22;4802;51.494;6.770;2023-07-16T14:40:41;26.30;99.90
9527;DHT22;4802;51.494;6.770;2023-07-16T14:43:10;26.20;99.90
9527;DHT22;4802;51.494;6.770;2023-07-16T14:45:43;26.30;99.90
9527;DHT22;4802;51.494;6.770;2023-07-16T14:48:14;26.30;99.90
9527;DHT22;4802;51.494;6.770;2023-07-16T14:50:48;26.30;99.90
9527;DHT22;4802;51.494;6.770;2023-07-16T14:53:19;26.20;99.90
9527;DHT22;4802;51.494;6.770;2023-07-16T14:55:50;26.00;99.90
9527;DHT22;4802;51.494;6.770;2023-07-16T14:58:20;26.00;99.90
9527;DHT22;4802;51.494;6.770;2023-07-16T15:00:51;26.00;99.90
9527;DHT22;4802;51.494;6.770;2023-07-16T15:03:21;26.00;99.90
9527;DHT22;4802;51.494;6.770;2023-07-16T15:05:56;26.00;99.90
9527;DHT22;4802;51.494;6.770;2023-07-16T15:08:25;26.00;99.90
9527;DHT22;4802;51.494;6.770;2023-07-16T15:10:57;26.00;99.90
9527;DHT22;4802;51.494;6.770;2023-07-16T15:13:27;26.10;99.90
9527;DHT22;4802;51.494;6.770;2023-07-16T15:15:57;25.80;99.90
9527;DHT22;4802;51.494;6.770;2023-07-16T15:18:27;26.00;99.90
9527;DHT22;4802;51.494;6.770;2023-07-16T15:20:57;26.00;99.90
9527;DHT22;4802;51.494;6.770;2023-07-16T15:23:28;26.00;99.90
9527;DHT22;4802;51.494;6.770;2023-07-16T15:26:02;26.00;99.90
9527;DHT22;4802;51.494;6.770;2023-07-16T15:28:32;25.70;99.90
9527;DHT22;4802;51.494;6.770;2023-07-16T15:31:07;25.40;99.90
9527;DHT22;4802;51.494;6.770;2023-07-16T15:33:36;25.80;99.90
9527;DHT22;4802;51.494;6.770;2023-07-16T15:36:05;25.80;99.90
9527;DHT22;4802;51.494;6.770;2023-07-16T15:38:39;25.80;99.90
9527;DHT22;4802;51.494;6.770;2023-07-16T15:41:09;25.80;99.90
9527;DHT22;4802;51.494;6.770;2023-07-16T15:43:41;25.70;99.90
9527;DHT22;4802;51.494;6.770;2023-07-16T15:46:13;25.80;99.90
9527;DHT22;4802;51.494;6.770;2023-07-16T15:48:46;26.00;99.90
9527;DHT22;4802;51.494;6.770;2023-07-16T15:51:16;25.70;99.90
9527;DHT22;4802;51.494;6.770;2023-07-16T15:53:55;25.70;99.90
9527;DHT22;4802;51.494;6.770;2023-07-16T15:56:24;25.70;99.90
9527;DHT22;4802;51.494;6.770;2023-07-16T15:58:55;25.50;99.90
9527;DHT22;4802;51.494;6.770;2023-07-16T16:01:39;25.40;99.90
9527;DHT22;4802;51.494;6.770;2023-07-16T16:04:12;25.40;99.90
9527;DHT22;4802;51.494;6.770;2023-07-16T16:06:47;25.40;99.90
9527;DHT22;4802;51.494;6.770;2023-07-16T16:09:16;25.30;99.90
9527;DHT22;4802;51.494;6.770;2023-07-16T16:11:46;25.20;99.90
9527;DHT22;4802;51.494;6.770;2023-07-16T16:14:15;25.20;99.90
9527;DHT22;4802;51.494;6.770;2023-07-16T16:16:56;25.40;99.90
9527;DHT22;4802;51.494;6.770;2023-07-16T16:19:34;25.40;99.90
9527;DHT22;4802;51.494;6.770;2023-07-16T16:22:05;25.40;99.90
9527;DHT22;4802;51.494;6.770;2023-07-16T16:24:38;25.40;99.90
9527;DHT22;4802;51.494;6.770;2023-07-16T16:27:09;25.20;99.90
9527;DHT22;4802;51.494;6.770;2023-07-16T16:29:39;25.20;99.90
9527;DHT22;4802;51.494;6.770;2023-07-16T16:32:10;25.40;99.90
9527;DHT22;4802;51.494;6.770;2023-07-16T16:34:44;25.40;99.90
9527;DHT22;4802;51.494;6.770;2023-07-16T16:37:14;25.70;99.90
9527;DHT22;4802;51.494;6.770;2023-07-16T16:39:43;25.40;99.90
9527;DHT22;4802;51.494;6.770;2023-07-16T16:45:41;25.20;99.90
9527;DHT22;4802;51.494;6.770;2023-07-16T16:48:51;24.90;99.90
9527;DHT22;4802;51.494;6.770;2023-07-16T16:51:28;24.80;99.90
9527;DHT22;4802;51.494;6.770;2023-07-16T16:54:03;24.80;99.90
9527;DHT22;4802;51.494;6.770;2023-07-16T16:56:47;24.80;99.90
9527;DHT22;4802;51.494;6.770;2023-07-16T16:59:26;24.60;99.90
9527;DHT22;4802;51.494;6.770;2023-07-16T17:02:02;24.20;99.90